sensor_id;sensor_type;location;lat;lon;timestamp;P1;durP1;ratioP1;P2;durP2;ratioP2
14734;SDS011;7458;49.002;8.472;2023-06-22T00:02:18;1059.63;;;942.92;;
14734;SDS011;7458;49.002;8.472;2023-06-22T00:04:44;1071.25;;;937.75;;
14734;SDS011;7458;49.002;8.472;2023-06-22T00:07:10;1110.90;;;844.13;;
14734;SDS011;7458;49.002;8.472;2023-06-22T00:09:35;1056.88;;;933.83;;
14734;SDS011;7458;49.002;8.472;2023-06-22T00:12:01;1105.50;;;860.58;;
14734;SDS011;7458;49.002;8.472;2023-06-22T00:14:28;1100.65;;;850.42;;
14734;SDS011;7458;49.002;8.472;2023-06-22T00:16:53;1101.97;;;852.40;;
14734;SDS011;7458;49.002;8.472;2023-06-22T00:19:24;1095.45;;;876.55;;
14734;SDS011;7458;49.002;8.472;2023-06-22T00:21:50;1083.50;;;862.58;;
14734;SDS011;7458;49.002;8.472;2023-06-22T00:24:19;1054.78;;;938.20;;
14734;SDS011;7458;49.002;8.472;2023-06-22T00:26:46;1078.15;;;866.05;;
14734;SDS011;7458;49.002;8.472;2023-06-22T00:29:13;1073.20;;;878.20;;
14734;SDS011;7458;49.002;8.472;2023-06-22T00:31:39;1065.32;;;948.90;;
14734;SDS011;7458;49.002;8.472;2023-06-22T00:34:05;1054.53;;;938.10;;
14734;SDS011;7458;49.002;8.472;2023-06-22T00:36:33;1065.53;;;949.10;;
14734;SDS011;7458;49.002;8.472;2023-06-22T00:39:00;1070.63;;;906.88;;
14734;SDS011;7458;49.002;8.472;2023-06-22T00:41:26;1077.70;;;960.72;;
14734;SDS011;7458;49.002;8.472;2023-06-22T00:43:53;1055.30;;;905.22;;
14734;SDS011;7458;49.002;8.472;2023-06-22T00:46:20;1051.50;;;909.40;;
14734;SDS011;7458;49.002;8.472;2023-06-22T00:48:47;1073.65;;;956.10;;
14734;SDS011;7458;49.002;8.472;2023-06-22T00:51:15;1076.78;;;947.35;;
14734;SDS011;7458;49.002;8.472;2023-06-22T00:53:41;1082.68;;;959.00;;
14734;SDS011;7458;49.002;8.472;2023-06-22T00:56:08;1130.45;;;856.90;;
14734;SDS011;7458;49.002;8.472;2023-06-22T00:58:37;1145.88;;;862.95;;
14734;SDS011;7458;49.002;8.472;2023-06-22T01:01:06;1137.03;;;858.30;;
14734;SDS011;7458;49.002;8.472;2023-06-22T01:03:32;1069.35;;;937.25;;
14734;SDS011;7458;49.002;8.472;2023-06-22T01:06:02;1108.43;;;874.58;;
14734;SDS011;7458;49.002;8.472;2023-06-22T01:08:42;1107.45;;;877.97;;
14734;SDS011;7458;49.002;8.472;2023-06-22T01:11:32;1118.15;;;880.70;;
14734;SDS011;7458;49.002;8.472;2023-06-22T01:14:10;1083.63;;;964.10;;
14734;SDS011;7458;49.002;8.472;2023-06-22T01:16:44;1103.32;;;885.03;;
14734;SDS011;7458;49.002;8.472;2023-06-22T01:19:34;1109.70;;;886.80;;
14734;SDS011;7458;49.002;8.472;2023-06-22T01:22:13;1111.32;;;884.13;;
14734;SDS011;7458;49.002;8.472;2023-06-22T01:27:58;1105.57;;;890.80;;
14734;SDS011;7458;49.002;8.472;2023-06-22T01:30:42;1086.97;;;968.22;;
14734;SDS011;7458;49.002;8.472;2023-06-22T01:33:13;1115.60;;;882.45;;
14734;SDS011;7458;49.002;8.472;2023-06-22T01:35:40;1082.22;;;964.08;;
14734;SDS011;7458;49.002;8.472;2023-06-22T01:38:07;1125.38;;;875.08;;
14734;SDS011;7458;49.002;8.472;2023-06-22T01:40:34;1117.32;;;960.60;;
14734;SDS011;7458;49.002;8.472;2023-06-22T01:43:02;1143.78;;;875.05;;
14734;SDS011;7458;49.002;8.472;2023-06-22T01:45:29;1088.18;;;969.20;;
14734;SDS011;7458;49.002;8.472;2023-06-22T01:47:55;1088.82;;;904.20;;
14734;SDS011;7458;49.002;8.472;2023-06-22T01:50:22;1104.50;;;883.40;;
14734;SDS011;7458;49.002;8.472;2023-06-22T01:52:49;1111.75;;;886.78;;
14734;SDS011;7458;49.002;8.472;2023-06-22T01:55:15;1118.97;;;887.28;;
14734;SDS011;7458;49.002;8.472;2023-06-22T01:57:40;1119.43;;;885.50;;
14734;SDS011;7458;49.002;8.472;2023-06-22T02:00:07;1094.00;;;939.15;;
14734;SDS011;7458;49.002;8.472;2023-06-22T02:05:19;1121.55;;;873.60;;
14734;SDS011;7458;49.002;8.472;2023-06-22T02:07:49;1083.47;;;959.03;;
14734;SDS011;7458;49.002;8.472;2023-06-22T02:10:25;1079.50;;;945.65;;
14734;SDS011;7458;49.002;8.472;2023-06-22T02:12:53;1076.85;;;952.72;;
14734;SDS011;7458;49.002;8.472;2023-06-22T02:15:22;1075.05;;;950.15;;
14734;SDS011;7458;49.002;8.472;2023-06-22T02:17:49;1124.05;;;869.28;;
14734;SDS011;7458;49.002;8.472;2023-06-22T02:20:15;1080.97;;;946.85;;
14734;SDS011;7458;49.002;8.472;2023-06-22T02:22:41;1082.20;;;945.05;;
14734;SDS011;7458;49.002;8.472;2023-06-22T02:25:07;1082.30;;;946.67;;
14734;SDS011;7458;49.002;8.472;2023-06-22T02:27:33;1132.72;;;863.90;;
14734;SDS011;7458;49.002;8.472;2023-06-22T02:29:59;1089.43;;;946.92;;
14734;SDS011;7458;49.002;8.472;2023-06-22T02:32:25;1093.90;;;935.03;;
14734;SDS011;7458;49.002;8.472;2023-06-22T02:34:52;1105.47;;;923.83;;
14734;SDS011;7458;49.002;8.472;2023-06-22T02:37:18;1089.75;;;941.28;;
14734;SDS011;7458;49.002;8.472;2023-06-22T02:39:43;1140.70;;;860.20;;
14734;SDS011;7458;49.002;8.472;2023-06-22T02:42:09;1083.47;;;954.28;;
14734;SDS011;7458;49.002;8.472;2023-06-22T02:44:35;1127.68;;;925.50;;
14734;SDS011;7458;49.002;8.472;2023-06-22T02:47:02;1114.05;;;932.75;;
14734;SDS011;7458;49.002;8.472;2023-06-22T02:49:28;1155.25;;;853.88;;
14734;SDS011;7458;49.002;8.472;2023-06-22T02:51:53;1118.47;;;936.42;;
14734;SDS011;7458;49.002;8.472;2023-06-22T02:54:20;1116.78;;;926.30;;
14734;SDS011;7458;49.002;8.472;2023-06-22T02:56:46;1172.20;;;851.78;;
14734;SDS011;7458;49.002;8.472;2023-06-22T02:59:13;1163.28;;;844.83;;
14734;SDS011;7458;49.002;8.472;2023-06-22T03:01:38;1118.75;;;927.00;;
14734;SDS011;7458;49.002;8.472;2023-06-22T03:04:07;1160.10;;;856.78;;
14734;SDS011;7458;49.002;8.472;2023-06-22T03:06:35;1150.93;;;850.38;;
14734;SDS011;7458;49.002;8.472;2023-06-22T03:09:04;1108.63;;;926.13;;
14734;SDS011;7458;49.002;8.472;2023-06-22T03:11:30;1172.07;;;925.92;;
14734;SDS011;7458;49.002;8.472;2023-06-22T03:13:58;1202.95;;;999.90;;
14734;SDS011;7458;49.002;8.472;2023-06-22T03:16:25;1252.18;;;917.35;;
14734;SDS011;7458;49.002;8.472;2023-06-22T03:18:51;1244.38;;;909.63;;
14734;SDS011;7458;49.002;8.472;2023-06-22T03:21:21;1200.85;;;999.90;;
14734;SDS011;7458;49.002;8.472;2023-06-22T03:23:48;1194.90;;;999.90;;
14734;SDS011;7458;49.002;8.472;2023-06-22T03:26:16;1190.85;;;997.50;;
14734;SDS011;7458;49.002;8.472;2023-06-22T03:28:43;1240.53;;;905.28;;
14734;SDS011;7458;49.002;8.472;2023-06-22T03:31:08;1237.07;;;886.35;;
14734;SDS011;7458;49.002;8.472;2023-06-22T03:33:34;1332.25;;;999.90;;
14734;SDS011;7458;49.002;8.472;2023-06-22T03:36:00;1237.35;;;898.65;;
14734;SDS011;7458;49.002;8.472;2023-06-22T03:38:26;1240.22;;;904.45;;
14734;SDS011;7458;49.002;8.472;2023-06-22T03:40:52;1189.45;;;988.45;;
14734;SDS011;7458;49.002;8.472;2023-06-22T03:43:17;1236.80;;;894.63;;
14734;SDS011;7458;49.002;8.472;2023-06-22T03:45:43;1186.95;;;979.33;;
14734;SDS011;7458;49.002;8.472;2023-06-22T03:48:10;1188.55;;;979.53;;
14734;SDS011;7458;49.002;8.472;2023-06-22T03:50:37;1241.40;;;893.25;;
14734;SDS011;7458;49.002;8.472;2023-06-22T03:53:02;1191.88;;;999.90;;
14734;SDS011;7458;49.002;8.472;2023-06-22T03:55:29;1236.85;;;898.30;;
14734;SDS011;7458;49.002;8.472;2023-06-22T03:57:55;1341.18;;;999.90;;
14734;SDS011;7458;49.002;8.472;2023-06-22T04:00:22;1242.07;;;908.03;;
14734;SDS011;7458;49.002;8.472;2023-06-22T04:02:48;1224.90;;;851.75;;
14734;SDS011;7458;49.002;8.472;2023-06-22T04:05:14;1229.13;;;878.28;;
14734;SDS011;7458;49.002;8.472;2023-06-22T04:07:43;1238.80;;;961.47;;
14734;SDS011;7458;49.002;8.472;2023-06-22T04:10:09;1239.85;;;988.42;;
14734;SDS011;7458;49.002;8.472;2023-06-22T04:12:35;1240.00;;;999.90;;
14734;SDS011;7458;49.002;8.472;2023-06-22T04:15:01;1239.47;;;999.90;;
14734;SDS011;7458;49.002;8.472;2023-06-22T04:17:27;1238.05;;;999.90;;
14734;SDS011;7458;49.002;8.472;2023-06-22T04:19:53;1288.82;;;999.90;;
14734;SDS011;7458;49.002;8.472;2023-06-22T04:22:18;1237.97;;;999.90;;
14734;SDS011;7458;49.002;8.472;2023-06-22T04:24:44;1243.07;;;999.90;;
14734;SDS011;7458;49.002;8.472;2023-06-22T04:27:10;1238.47;;;999.90;;
14734;SDS011;7458;49.002;8.472;2023-06-22T04:29:36;1270.55;;;999.90;;
14734;SDS011;7458;49.002;8.472;2023-06-22T04:32:03;1234.80;;;999.90;;
14734;SDS011;7458;49.002;8.472;2023-06-22T04:34:30;1291.32;;;999.90;;
14734;SDS011;7458;49.002;8.472;2023-06-22T04:36:56;1218.47;;;999.90;;
14734;SDS011;7458;49.002;8.472;2023-06-22T04:39:22;1293.28;;;999.90;;
14734;SDS011;7458;49.002;8.472;2023-06-22T04:41:48;1273.65;;;999.90;;
14734;SDS011;7458;49.002;8.472;2023-06-22T04:44:17;1283.78;;;999.90;;
14734;SDS011;7458;49.002;8.472;2023-06-22T04:46:49;1226.38;;;999.90;;
14734;SDS011;7458;49.002;8.472;2023-06-22T04:49:24;1228.43;;;999.90;;
14734;SDS011;7458;49.002;8.472;2023-06-22T04:51:58;1226.10;;;999.90;;
14734;SDS011;7458;49.002;8.472;2023-06-22T04:54:25;1222.72;;;999.90;;
14734;SDS011;7458;49.002;8.472;2023-06-22T04:56:51;1281.18;;;999.90;;
14734;SDS011;7458;49.002;8.472;2023-06-22T04:59:23;1225.07;;;999.90;;
14734;SDS011;7458;49.002;8.472;2023-06-22T05:04:27;1231.85;;;999.90;;
14734;SDS011;7458;49.002;8.472;2023-06-22T05:06:58;1225.30;;;999.90;;
14734;SDS011;7458;49.002;8.472;2023-06-22T05:09:25;1376.93;;;999.90;;
14734;SDS011;7458;49.002;8.472;2023-06-22T05:11:51;1220.43;;;997.97;;
14734;SDS011;7458;49.002;8.472;2023-06-22T05:14:17;1273.55;;;999.90;;
14734;SDS011;7458;49.002;8.472;2023-06-22T05:16:44;1281.32;;;999.90;;
14734;SDS011;7458;49.002;8.472;2023-06-22T05:19:11;1229.93;;;999.90;;
14734;SDS011;7458;49.002;8.472;2023-06-22T05:21:37;1265.80;;;999.90;;
14734;SDS011;7458;49.002;8.472;2023-06-22T05:24:04;1236.25;;;999.90;;
14734;SDS011;7458;49.002;8.472;2023-06-22T05:26:30;1265.13;;;999.90;;
14734;SDS011;7458;49.002;8.472;2023-06-22T05:28:58;1268.97;;;999.90;;
14734;SDS011;7458;49.002;8.472;2023-06-22T05:31:26;1246.80;;;999.90;;
14734;SDS011;7458;49.002;8.472;2023-06-22T05:33:53;1237.47;;;999.90;;
14734;SDS011;7458;49.002;8.472;2023-06-22T05:36:20;1241.72;;;999.90;;
14734;SDS011;7458;49.002;8.472;2023-06-22T05:38:49;1233.63;;;999.90;;
14734;SDS011;7458;49.002;8.472;2023-06-22T05:41:17;1226.88;;;999.90;;
14734;SDS011;7458;49.002;8.472;2023-06-22T05:43:42;1211.18;;;999.90;;
14734;SDS011;7458;49.002;8.472;2023-06-22T05:46:08;1236.07;;;996.42;;
14734;SDS011;7458;49.002;8.472;2023-06-22T05:48:34;1230.22;;;996.05;;
14734;SDS011;7458;49.002;8.472;2023-06-22T05:51:00;1232.97;;;980.90;;
14734;SDS011;7458;49.002;8.472;2023-06-22T05:53:26;1215.40;;;999.90;;
14734;SDS011;7458;49.002;8.472;2023-06-22T05:55:52;1236.88;;;956.90;;
14734;SDS011;7458;49.002;8.472;2023-06-22T05:58:18;1275.75;;;999.90;;
14734;SDS011;7458;49.002;8.472;2023-06-22T06:00:44;1235.95;;;999.53;;
14734;SDS011;7458;49.002;8.472;2023-06-22T06:03:10;1244.65;;;999.90;;
14734;SDS011;7458;49.002;8.472;2023-06-22T06:05:36;1300.53;;;999.90;;
14734;SDS011;7458;49.002;8.472;2023-06-22T06:08:03;1239.28;;;990.55;;
14734;SDS011;7458;49.002;8.472;2023-06-22T06:10:31;1265.03;;;999.90;;
14734;SDS011;7458;49.002;8.472;2023-06-22T06:12:58;1243.65;;;999.90;;
14734;SDS011;7458;49.002;8.472;2023-06-22T06:15:27;1284.43;;;999.90;;
14734;SDS011;7458;49.002;8.472;2023-06-22T06:17:53;1237.30;;;979.55;;
14734;SDS011;7458;49.002;8.472;2023-06-22T06:20:20;1199.00;;;999.90;;
14734;SDS011;7458;49.002;8.472;2023-06-22T06:22:48;1287.45;;;999.90;;
14734;SDS011;7458;49.002;8.472;2023-06-22T06:25:15;1237.63;;;999.90;;
14734;SDS011;7458;49.002;8.472;2023-06-22T06:27:42;1290.93;;;999.90;;
14734;SDS011;7458;49.002;8.472;2023-06-22T06:30:09;1248.65;;;999.90;;
14734;SDS011;7458;49.002;8.472;2023-06-22T06:32:37;1242.70;;;956.90;;
14734;SDS011;7458;49.002;8.472;2023-06-22T06:35:07;1250.03;;;999.90;;
14734;SDS011;7458;49.002;8.472;2023-06-22T06:37:36;1249.30;;;953.60;;
14734;SDS011;7458;49.002;8.472;2023-06-22T06:40:05;1242.45;;;927.10;;
14734;SDS011;7458;49.002;8.472;2023-06-22T06:42:39;1270.53;;;999.90;;
14734;SDS011;7458;49.002;8.472;2023-06-22T06:45:09;1265.90;;;999.90;;
14734;SDS011;7458;49.002;8.472;2023-06-22T06:47:43;1307.35;;;999.90;;
14734;SDS011;7458;49.002;8.472;2023-06-22T06:50:09;1354.55;;;999.90;;
14734;SDS011;7458;49.002;8.472;2023-06-22T06:52:35;1250.22;;;999.90;;
14734;SDS011;7458;49.002;8.472;2023-06-22T06:55:01;1263.10;;;999.90;;
14734;SDS011;7458;49.002;8.472;2023-06-22T06:57:29;1247.53;;;999.90;;
14734;SDS011;7458;49.002;8.472;2023-06-22T06:59:56;1389.60;;;999.90;;
14734;SDS011;7458;49.002;8.472;2023-06-22T07:02:23;1379.53;;;999.90;;
14734;SDS011;7458;49.002;8.472;2023-06-22T07:04:49;1380.22;;;999.90;;
14734;SDS011;7458;49.002;8.472;2023-06-22T07:07:15;1389.53;;;999.90;;
14734;SDS011;7458;49.002;8.472;2023-06-22T07:09:41;1394.93;;;999.90;;
14734;SDS011;7458;49.002;8.472;2023-06-22T07:12:07;1396.65;;;999.90;;
14734;SDS011;7458;49.002;8.472;2023-06-22T07:14:33;1399.20;;;999.90;;
14734;SDS011;7458;49.002;8.472;2023-06-22T07:16:59;1240.22;;;999.90;;
14734;SDS011;7458;49.002;8.472;2023-06-22T07:19:25;1238.82;;;999.90;;
14734;SDS011;7458;49.002;8.472;2023-06-22T07:21:53;1383.85;;;999.90;;
14734;SDS011;7458;49.002;8.472;2023-06-22T07:24:20;1376.07;;;999.90;;
14734;SDS011;7458;49.002;8.472;2023-06-22T07:26:47;1225.75;;;999.90;;
14734;SDS011;7458;49.002;8.472;2023-06-22T07:29:15;1277.60;;;999.90;;
14734;SDS011;7458;49.002;8.472;2023-06-22T07:31:47;1397.57;;;999.90;;
14734;SDS011;7458;49.002;8.472;2023-06-22T07:34:16;1400.50;;;999.90;;
14734;SDS011;7458;49.002;8.472;2023-06-22T07:36:42;1401.57;;;999.90;;
14734;SDS011;7458;49.002;8.472;2023-06-22T07:39:09;1398.00;;;999.90;;
14734;SDS011;7458;49.002;8.472;2023-06-22T07:41:35;1293.28;;;999.90;;
14734;SDS011;7458;49.002;8.472;2023-06-22T07:44:02;1362.93;;;999.90;;
14734;SDS011;7458;49.002;8.472;2023-06-22T07:46:28;1420.72;;;999.90;;
14734;SDS011;7458;49.002;8.472;2023-06-22T07:48:55;1266.20;;;999.90;;
14734;SDS011;7458;49.002;8.472;2023-06-22T07:51:22;1376.85;;;999.90;;
14734;SDS011;7458;49.002;8.472;2023-06-22T07:53:48;1183.50;;;999.90;;
14734;SDS011;7458;49.002;8.472;2023-06-22T07:56:14;1356.60;;;999.90;;
14734;SDS011;7458;49.002;8.472;2023-06-22T07:58:44;1294.72;;;999.90;;
14734;SDS011;7458;49.002;8.472;2023-06-22T08:01:11;1402.65;;;999.90;;
14734;SDS011;7458;49.002;8.472;2023-06-22T08:03:39;1336.70;;;999.90;;
14734;SDS011;7458;49.002;8.472;2023-06-22T08:06:05;1260.22;;;999.90;;
14734;SDS011;7458;49.002;8.472;2023-06-22T08:08:33;1266.20;;;999.90;;
14734;SDS011;7458;49.002;8.472;2023-06-22T08:11:00;1399.07;;;999.90;;
14734;SDS011;7458;49.002;8.472;2023-06-22T08:13:26;1387.22;;;999.90;;
14734;SDS011;7458;49.002;8.472;2023-06-22T08:15:51;1383.18;;;999.90;;
14734;SDS011;7458;49.002;8.472;2023-06-22T08:18:17;1264.25;;;999.90;;
14734;SDS011;7458;49.002;8.472;2023-06-22T08:20:43;1331.07;;;999.90;;
14734;SDS011;7458;49.002;8.472;2023-06-22T08:23:18;1225.57;;;999.90;;
14734;SDS011;7458;49.002;8.472;2023-06-22T08:25:43;1370.57;;;999.90;;
14734;SDS011;7458;49.002;8.472;2023-06-22T08:28:11;1210.65;;;999.90;;
14734;SDS011;7458;49.002;8.472;2023-06-22T08:30:38;1200.30;;;999.90;;
14734;SDS011;7458;49.002;8.472;2023-06-22T08:33:04;1207.85;;;999.90;;
14734;SDS011;7458;49.002;8.472;2023-06-22T08:35:32;1350.43;;;999.90;;
14734;SDS011;7458;49.002;8.472;2023-06-22T08:37:58;1415.40;;;999.90;;
14734;SDS011;7458;49.002;8.472;2023-06-22T08:40:25;1220.45;;;999.90;;
14734;SDS011;7458;49.002;8.472;2023-06-22T08:42:51;1213.55;;;999.90;;
14734;SDS011;7458;49.002;8.472;2023-06-22T08:45:16;1230.57;;;999.90;;
14734;SDS011;7458;49.002;8.472;2023-06-22T08:47:42;1198.00;;;999.90;;
14734;SDS011;7458;49.002;8.472;2023-06-22T08:50:08;1316.75;;;999.90;;
14734;SDS011;7458;49.002;8.472;2023-06-22T08:52:37;1191.90;;;999.90;;
14734;SDS011;7458;49.002;8.472;2023-06-22T08:55:06;1308.82;;;999.90;;
14734;SDS011;7458;49.002;8.472;2023-06-22T08:57:33;1314.88;;;999.90;;
14734;SDS011;7458;49.002;8.472;2023-06-22T09:00:02;1203.68;;;999.90;;
14734;SDS011;7458;49.002;8.472;2023-06-22T09:02:32;1218.15;;;999.90;;
14734;SDS011;7458;49.002;8.472;2023-06-22T09:04:58;1305.78;;;999.90;;
14734;SDS011;7458;49.002;8.472;2023-06-22T09:07:24;1214.00;;;999.90;;
14734;SDS011;7458;49.002;8.472;2023-06-22T09:09:51;1192.60;;;999.90;;
14734;SDS011;7458;49.002;8.472;2023-06-22T09:12:17;1219.28;;;972.65;;
14734;SDS011;7458;49.002;8.472;2023-06-22T09:14:45;1214.57;;;999.90;;
14734;SDS011;7458;49.002;8.472;2023-06-22T09:17:12;1294.78;;;999.90;;
14734;SDS011;7458;49.002;8.472;2023-06-22T09:19:38;1221.95;;;986.28;;
14734;SDS011;7458;49.002;8.472;2023-06-22T09:22:04;1292.13;;;999.90;;
14734;SDS011;7458;49.002;8.472;2023-06-22T09:24:33;1226.65;;;985.47;;
14734;SDS011;7458;49.002;8.472;2023-06-22T09:26:59;1232.22;;;961.42;;
14734;SDS011;7458;49.002;8.472;2023-06-22T09:29:25;1292.75;;;999.90;;
14734;SDS011;7458;49.002;8.472;2023-06-22T09:31:51;1235.57;;;958.80;;
14734;SDS011;7458;49.002;8.472;2023-06-22T09:34:18;1224.90;;;886.20;;
14734;SDS011;7458;49.002;8.472;2023-06-22T09:36:48;1214.32;;;878.10;;
14734;SDS011;7458;49.002;8.472;2023-06-22T09:39:14;1247.68;;;961.20;;
14734;SDS011;7458;49.002;8.472;2023-06-22T09:41:39;1233.70;;;924.13;;
14734;SDS011;7458;49.002;8.472;2023-06-22T09:44:05;1231.30;;;917.65;;
14734;SDS011;7458;49.002;8.472;2023-06-22T09:46:31;1239.53;;;966.78;;
14734;SDS011;7458;49.002;8.472;2023-06-22T09:48:57;1309.57;;;999.90;;
14734;SDS011;7458;49.002;8.472;2023-06-22T09:51:23;1231.45;;;999.90;;
14734;SDS011;7458;49.002;8.472;2023-06-22T09:53:52;1295.85;;;999.90;;
14734;SDS011;7458;49.002;8.472;2023-06-22T09:56:20;1284.95;;;999.90;;
14734;SDS011;7458;49.002;8.472;2023-06-22T09:58:47;1225.72;;;999.90;;
14734;SDS011;7458;49.002;8.472;2023-06-22T10:01:15;1223.78;;;999.90;;
14734;SDS011;7458;49.002;8.472;2023-06-22T10:03:41;1207.75;;;850.10;;
14734;SDS011;7458;49.002;8.472;2023-06-22T10:06:07;1137.95;;;956.25;;
14734;SDS011;7458;49.002;8.472;2023-06-22T10:08:34;1189.00;;;827.13;;
14734;SDS011;7458;49.002;8.472;2023-06-22T10:11:00;1195.25;;;817.83;;
14734;SDS011;7458;49.002;8.472;2023-06-22T10:13:26;1199.20;;;812.97;;
14734;SDS011;7458;49.002;8.472;2023-06-22T10:15:52;1137.38;;;941.47;;
14734;SDS011;7458;49.002;8.472;2023-06-22T10:18:18;1123.60;;;930.22;;
14734;SDS011;7458;49.002;8.472;2023-06-22T10:20:46;1211.20;;;856.38;;
14734;SDS011;7458;49.002;8.472;2023-06-22T10:23:16;1120.07;;;925.13;;
14734;SDS011;7458;49.002;8.472;2023-06-22T10:25:42;1217.13;;;999.90;;
14734;SDS011;7458;49.002;8.472;2023-06-22T10:28:08;1212.00;;;999.90;;
14734;SDS011;7458;49.002;8.472;2023-06-22T10:30:33;1208.80;;;999.90;;
14734;SDS011;7458;49.002;8.472;2023-06-22T10:32:59;1207.70;;;999.90;;
14734;SDS011;7458;49.002;8.472;2023-06-22T10:35:25;1209.05;;;999.90;;
14734;SDS011;7458;49.002;8.472;2023-06-22T10:37:51;1296.15;;;999.90;;
14734;SDS011;7458;49.002;8.472;2023-06-22T10:40:19;1276.82;;;999.90;;
14734;SDS011;7458;49.002;8.472;2023-06-22T10:42:45;1293.63;;;999.90;;
14734;SDS011;7458;49.002;8.472;2023-06-22T10:45:11;1201.07;;;999.90;;
14734;SDS011;7458;49.002;8.472;2023-06-22T10:47:37;1301.00;;;999.90;;
14734;SDS011;7458;49.002;8.472;2023-06-22T10:50:03;1301.88;;;999.90;;
14734;SDS011;7458;49.002;8.472;2023-06-22T10:52:30;1309.45;;;999.90;;
14734;SDS011;7458;49.002;8.472;2023-06-22T10:54:55;1302.55;;;999.90;;
14734;SDS011;7458;49.002;8.472;2023-06-22T10:57:22;1210.80;;;999.90;;
14734;SDS011;7458;49.002;8.472;2023-06-22T10:59:48;1204.45;;;999.90;;
14734;SDS011;7458;49.002;8.472;2023-06-22T11:02:14;1304.22;;;999.90;;
14734;SDS011;7458;49.002;8.472;2023-06-22T11:04:40;1214.78;;;999.90;;
14734;SDS011;7458;49.002;8.472;2023-06-22T11:07:06;1217.15;;;999.90;;
14734;SDS011;7458;49.002;8.472;2023-06-22T11:09:31;1209.30;;;999.90;;
14734;SDS011;7458;49.002;8.472;2023-06-22T11:11:57;1229.20;;;999.90;;
14734;SDS011;7458;49.002;8.472;2023-06-22T11:14:24;1206.65;;;999.08;;
14734;SDS011;7458;49.002;8.472;2023-06-22T11:16:50;1212.82;;;999.90;;
14734;SDS011;7458;49.002;8.472;2023-06-22T11:19:17;1297.53;;;999.90;;
14734;SDS011;7458;49.002;8.472;2023-06-22T11:21:43;1279.28;;;999.90;;
14734;SDS011;7458;49.002;8.472;2023-06-22T11:24:09;1282.60;;;999.90;;
14734;SDS011;7458;49.002;8.472;2023-06-22T11:26:35;1279.07;;;999.90;;
14734;SDS011;7458;49.002;8.472;2023-06-22T11:29:02;1279.95;;;999.90;;
14734;SDS011;7458;49.002;8.472;2023-06-22T11:31:31;1204.68;;;954.20;;
14734;SDS011;7458;49.002;8.472;2023-06-22T11:33:57;1268.82;;;999.90;;
14734;SDS011;7458;49.002;8.472;2023-06-22T11:36:26;1211.60;;;976.92;;
14734;SDS011;7458;49.002;8.472;2023-06-22T11:38:57;1298.18;;;999.90;;
14734;SDS011;7458;49.002;8.472;2023-06-22T11:41:23;1225.70;;;980.83;;
14734;SDS011;7458;49.002;8.472;2023-06-22T11:43:49;1265.85;;;999.90;;
14734;SDS011;7458;49.002;8.472;2023-06-22T11:46:15;1220.72;;;962.08;;
14734;SDS011;7458;49.002;8.472;2023-06-22T11:48:41;1217.40;;;945.85;;
14734;SDS011;7458;49.002;8.472;2023-06-22T11:51:07;1215.32;;;939.35;;
14734;SDS011;7458;49.002;8.472;2023-06-22T11:53:33;1225.18;;;999.90;;
14734;SDS011;7458;49.002;8.472;2023-06-22T11:56:00;1211.38;;;999.90;;
14734;SDS011;7458;49.002;8.472;2023-06-22T11:58:26;1241.15;;;999.90;;
14734;SDS011;7458;49.002;8.472;2023-06-22T12:00:53;1219.47;;;977.30;;
14734;SDS011;7458;49.002;8.472;2023-06-22T12:03:19;1209.07;;;955.05;;
14734;SDS011;7458;49.002;8.472;2023-06-22T12:05:46;1204.82;;;958.78;;
14734;SDS011;7458;49.002;8.472;2023-06-22T12:08:12;1217.50;;;934.58;;
14734;SDS011;7458;49.002;8.472;2023-06-22T12:10:39;1218.53;;;942.08;;
14734;SDS011;7458;49.002;8.472;2023-06-22T12:13:04;1261.13;;;999.90;;
14734;SDS011;7458;49.002;8.472;2023-06-22T12:15:30;1165.95;;;999.90;;
14734;SDS011;7458;49.002;8.472;2023-06-22T12:17:56;1164.25;;;999.90;;
14734;SDS011;7458;49.002;8.472;2023-06-22T12:20:22;1205.95;;;822.63;;
14734;SDS011;7458;49.002;8.472;2023-06-22T12:22:48;1203.18;;;829.85;;
14734;SDS011;7458;49.002;8.472;2023-06-22T12:25:16;1136.22;;;972.03;;
14734;SDS011;7458;49.002;8.472;2023-06-22T12:27:42;1209.05;;;828.15;;
14734;SDS011;7458;49.002;8.472;2023-06-22T12:30:08;1197.70;;;815.88;;
14734;SDS011;7458;49.002;8.472;2023-06-22T12:32:34;1189.05;;;815.35;;
14734;SDS011;7458;49.002;8.472;2023-06-22T12:35:00;1199.45;;;818.78;;
14734;SDS011;7458;49.002;8.472;2023-06-22T12:37:25;1113.95;;;968.55;;
14734;SDS011;7458;49.002;8.472;2023-06-22T12:39:52;1194.18;;;999.90;;
14734;SDS011;7458;49.002;8.472;2023-06-22T12:42:19;1210.32;;;999.90;;
14734;SDS011;7458;49.002;8.472;2023-06-22T12:44:46;1221.07;;;885.97;;
14734;SDS011;7458;49.002;8.472;2023-06-22T12:47:11;1137.03;;;989.78;;
14734;SDS011;7458;49.002;8.472;2023-06-22T12:49:38;1207.18;;;835.67;;
14734;SDS011;7458;49.002;8.472;2023-06-22T12:52:08;1197.72;;;818.92;;
14734;SDS011;7458;49.002;8.472;2023-06-22T12:54:36;1123.30;;;948.40;;
14734;SDS011;7458;49.002;8.472;2023-06-22T12:57:02;1188.10;;;829.67;;
14734;SDS011;7458;49.002;8.472;2023-06-22T12:59:27;1116.35;;;972.42;;
14734;SDS011;7458;49.002;8.472;2023-06-22T13:01:53;1183.80;;;852.38;;
14734;SDS011;7458;49.002;8.472;2023-06-22T13:04:19;1178.85;;;854.00;;
14734;SDS011;7458;49.002;8.472;2023-06-22T13:06:54;1110.88;;;977.22;;
14734;SDS011;7458;49.002;8.472;2023-06-22T13:09:31;1167.43;;;864.22;;
14734;SDS011;7458;49.002;8.472;2023-06-22T13:12:16;1116.65;;;995.45;;
14734;SDS011;7458;49.002;8.472;2023-06-22T13:14:42;1162.32;;;857.40;;
14734;SDS011;7458;49.002;8.472;2023-06-22T13:17:08;1113.55;;;990.58;;
14734;SDS011;7458;49.002;8.472;2023-06-22T13:19:34;1127.22;;;999.90;;
14734;SDS011;7458;49.002;8.472;2023-06-22T13:22:00;1127.90;;;999.90;;
14734;SDS011;7458;49.002;8.472;2023-06-22T13:24:27;1144.80;;;879.80;;
14734;SDS011;7458;49.002;8.472;2023-06-22T13:26:53;1152.22;;;877.80;;
14734;SDS011;7458;49.002;8.472;2023-06-22T13:29:19;1101.00;;;956.90;;
14734;SDS011;7458;49.002;8.472;2023-06-22T13:31:45;1161.35;;;849.47;;
14734;SDS011;7458;49.002;8.472;2023-06-22T13:34:11;1176.05;;;853.13;;
14734;SDS011;7458;49.002;8.472;2023-06-22T13:36:37;1165.07;;;852.85;;
14734;SDS011;7458;49.002;8.472;2023-06-22T13:39:03;1176.45;;;843.60;;
14734;SDS011;7458;49.002;8.472;2023-06-22T13:41:29;1175.60;;;999.90;;
14734;SDS011;7458;49.002;8.472;2023-06-22T13:43:55;1307.53;;;999.90;;
14734;SDS011;7458;49.002;8.472;2023-06-22T13:46:20;1207.47;;;999.90;;
14734;SDS011;7458;49.002;8.472;2023-06-22T13:48:46;1316.40;;;999.90;;
14734;SDS011;7458;49.002;8.472;2023-06-22T13:51:12;1202.50;;;999.90;;
14734;SDS011;7458;49.002;8.472;2023-06-22T13:53:38;1313.97;;;999.90;;
14734;SDS011;7458;49.002;8.472;2023-06-22T13:56:03;1199.03;;;999.90;;
14734;SDS011;7458;49.002;8.472;2023-06-22T13:58:29;1204.63;;;999.90;;
14734;SDS011;7458;49.002;8.472;2023-06-22T14:00:55;1309.72;;;999.90;;
14734;SDS011;7458;49.002;8.472;2023-06-22T14:03:20;1207.85;;;999.90;;
14734;SDS011;7458;49.002;8.472;2023-06-22T14:05:46;1205.45;;;999.67;;